sensor_id;sensor_type;location;lat;lon;timestamp;pressure;altitude;pressure_sealevel;temperature;humidity
13734;BME280;43298;52.560;13.508;2023-03-13T00:01:51;100111.81;;;6.06;100.00
13734;BME280;43298;52.560;13.508;2023-03-13T00:04:10;100110.06;;;6.06;100.00
13734;BME280;43298;52.560;13.508;2023-03-13T00:06:37;100117.66;;;6.09;100.00
13734;BME280;43298;52.560;13.508;2023-03-13T00:09:08;100120.84;;;6.16;100.00
13734;BME280;43298;52.560;13.508;2023-03-13T00:11:35;100115.63;;;6.19;100.00
13734;BME280;43298;52.560;13.508;2023-03-13T00:14:03;100114.75;;;6.20;100.00
13734;BME280;43298;52.560;13.508;2023-03-13T00:16:33;100111.22;;;6.22;100.00
13734;BME280;43298;52.560;13.508;2023-03-13T00:19:00;100108.72;;;6.21;100.00
13734;BME280;43298;52.560;13.508;2023-03-13T00:21:28;100107.56;;;6.30;100.00
13734;BME280;43298;52.560;13.508;2023-03-13T00:23:54;100112.56;;;6.34;100.00
13734;BME280;43298;52.560;13.508;2023-03-13T00:26:23;100104.84;;;6.34;100.00
13734;BME280;43298;52.560;13.508;2023-03-13T00:28:50;100103.06;;;6.36;100.00
13734;BME280;43298;52.560;13.508;2023-03-13T00:31:23;100107.34;;;6.36;100.00
13734;BME280;43298;52.560;13.508;2023-03-13T00:33:56;100100.47;;;6.36;100.00
13734;BME280;43298;52.560;13.508;2023-03-13T00:36:29;100095.91;;;6.44;100.00
13734;BME280;43298;52.560;13.508;2023-03-13T00:38:56;100103.63;;;6.44;100.00
13734;BME280;43298;52.560;13.508;2023-03-13T00:41:26;100091.38;;;6.52;100.00
13734;BME280;43298;52.560;13.508;2023-03-13T00:43:52;100085.31;;;6.53;100.00
13734;BME280;43298;52.560;13.508;2023-03-13T00:46:22;100085.19;;;6.58;100.00
13734;BME280;43298;52.560;13.508;2023-03-13T00:48:49;100077.28;;;6.62;100.00
13734;BME280;43298;52.560;13.508;2023-03-13T00:51:17;100068.97;;;6.56;100.00
13734;BME280;43298;52.560;13.508;2023-03-13T00:53:44;100063.31;;;6.69;100.00
13734;BME280;43298;52.560;13.508;2023-03-13T00:56:13;100065.00;;;6.70;100.00
13734;BME280;43298;52.560;13.508;2023-03-13T00:58:42;100058.06;;;6.72;100.00
13734;BME280;43298;52.560;13.508;2023-03-13T01:01:21;100056.25;;;6.76;100.00
13734;BME280;43298;52.560;13.508;2023-03-13T01:03:50;100057.00;;;6.78;100.00
13734;BME280;43298;52.560;13.508;2023-03-13T01:06:21;100062.88;;;6.81;100.00
13734;BME280;43298;52.560;13.508;2023-03-13T01:08:47;100056.63;;;6.88;100.00
13734;BME280;43298;52.560;13.508;2023-03-13T01:11:23;100058.28;;;6.89;100.00
13734;BME280;43298;52.560;13.508;2023-03-13T01:13:57;100061.66;;;6.91;100.00
13734;BME280;43298;52.560;13.508;2023-03-13T01:16:25;100065.94;;;6.91;100.00
13734;BME280;43298;52.560;13.508;2023-03-13T01:18:56;100064.97;;;6.93;100.00
13734;BME280;43298;52.560;13.508;2023-03-13T01:21:24;100058.28;;;6.89;100.00
13734;BME280;43298;52.560;13.508;2023-03-13T01:23:51;100063.31;;;6.92;100.00
13734;BME280;43298;52.560;13.508;2023-03-13T01:26:19;100062.41;;;6.93;100.00
13734;BME280;43298;52.560;13.508;2023-03-13T01:28:45;100065.94;;;6.91;100.00
13734;BME280;43298;52.560;13.508;2023-03-13T01:31:18;100070.25;;;6.90;100.00
13734;BME280;43298;52.560;13.508;2023-03-13T01:33:46;100058.19;;;6.92;100.00
13734;BME280;43298;52.560;13.508;2023-03-13T01:36:12;100066.72;;;6.93;100.00
13734;BME280;43298;52.560;13.508;2023-03-13T01:38:38;100057.34;;;6.92;100.00
13734;BME280;43298;52.560;13.508;2023-03-13T01:41:07;100071.63;;;6.99;100.00
13734;BME280;43298;52.560;13.508;2023-03-13T01:43:36;100057.97;;;6.98;100.00
13734;BME280;43298;52.560;13.508;2023-03-13T01:49:06;100054.47;;;6.99;100.00
13734;BME280;43298;52.560;13.508;2023-03-13T01:54:59;100033.06;;;6.99;100.00
13734;BME280;43298;52.560;13.508;2023-03-13T01:57:28;100035.59;;;7.00;100.00
13734;BME280;43298;52.560;13.508;2023-03-13T02:00:11;100024.53;;;6.98;100.00
13734;BME280;43298;52.560;13.508;2023-03-13T02:02:43;100022.03;;;6.97;100.00
13734;BME280;43298;52.560;13.508;2023-03-13T02:05:11;100010.41;;;7.08;100.00
13734;BME280;43298;52.560;13.508;2023-03-13T02:07:53;100014.53;;;7.12;100.00
13734;BME280;43298;52.560;13.508;2023-03-13T02:10:20;100006.06;;;7.10;100.00
13734;BME280;43298;52.560;13.508;2023-03-13T02:12:47;99993.22;;;7.10;100.00
13734;BME280;43298;52.560;13.508;2023-03-13T02:15:18;99985.63;;;7.07;100.00
13734;BME280;43298;52.560;13.508;2023-03-13T02:17:45;99973.00;;;7.01;100.00
13734;BME280;43298;52.560;13.508;2023-03-13T02:20:14;99967.22;;;6.96;100.00
13734;BME280;43298;52.560;13.508;2023-03-13T02:25:51;99951.84;;;6.95;100.00
13734;BME280;43298;52.560;13.508;2023-03-13T02:28:37;99951.16;;;6.91;100.00
13734;BME280;43298;52.560;13.508;2023-03-13T02:31:05;99951.28;;;6.88;100.00
13734;BME280;43298;52.560;13.508;2023-03-13T02:33:40;99944.44;;;6.87;100.00
13734;BME280;43298;52.560;13.508;2023-03-13T02:36:07;99944.44;;;6.87;100.00
13734;BME280;43298;52.560;13.508;2023-03-13T02:38:41;99937.63;;;6.86;100.00
13734;BME280;43298;52.560;13.508;2023-03-13T02:41:09;99936.81;;;6.86;100.00
13734;BME280;43298;52.560;13.508;2023-03-13T02:43:37;99936.94;;;6.83;100.00
13734;BME280;43298;52.560;13.508;2023-03-13T02:46:17;99919.13;;;6.78;100.00
13734;BME280;43298;52.560;13.508;2023-03-13T02:48:55;99919.28;;;6.74;100.00
13734;BME280;43298;52.560;13.508;2023-03-13T02:51:35;99922.53;;;6.79;100.00
13734;BME280;43298;52.560;13.508;2023-03-13T02:54:09;99919.88;;;6.80;100.00
13734;BME280;43298;52.560;13.508;2023-03-13T02:56:37;99905.47;;;6.76;100.00
13734;BME280;43298;52.560;13.508;2023-03-13T02:59:04;99906.28;;;6.78;100.00
13734;BME280;43298;52.560;13.508;2023-03-13T03:01:31;99896.09;;;6.75;100.00
13734;BME280;43298;52.560;13.508;2023-03-13T03:03:57;99896.97;;;6.76;100.00
13734;BME280;43298;52.560;13.508;2023-03-13T03:06:23;99887.44;;;6.78;100.00
13734;BME280;43298;52.560;13.508;2023-03-13T03:08:49;99882.25;;;6.79;100.00
13734;BME280;43298;52.560;13.508;2023-03-13T03:11:15;99886.47;;;6.80;100.00
13734;BME280;43298;52.560;13.508;2023-03-13T03:13:41;99875.19;;;6.84;100.00
13734;BME280;43298;52.560;13.508;2023-03-13T03:16:12;99876.06;;;6.83;100.00
13734;BME280;43298;52.560;13.508;2023-03-13T03:18:40;99872.56;;;6.86;100.00
13734;BME280;43298;52.560;13.508;2023-03-13T03:21:06;99872.56;;;6.86;100.00
13734;BME280;43298;52.560;13.508;2023-03-13T03:23:33;99867.28;;;6.89;100.00
13734;BME280;43298;52.560;13.508;2023-03-13T03:26:00;99869.16;;;6.85;100.00
13734;BME280;43298;52.560;13.508;2023-03-13T03:28:26;99869.09;;;6.87;100.00
13734;BME280;43298;52.560;13.508;2023-03-13T03:30:51;99863.84;;;6.90;100.00
13734;BME280;43298;52.560;13.508;2023-03-13T03:33:22;99859.63;;;6.87;100.00
13734;BME280;43298;52.560;13.508;2023-03-13T03:35:49;99862.94;;;6.91;100.00
13734;BME280;43298;52.560;13.508;2023-03-13T03:38:15;99861.22;;;6.91;100.00
13734;BME280;43298;52.560;13.508;2023-03-13T03:40:41;99848.22;;;6.94;100.00
13734;BME280;43298;52.560;13.508;2023-03-13T03:43:07;99851.63;;;6.95;100.00
13734;BME280;43298;52.560;13.508;2023-03-13T03:45:33;99847.41;;;6.94;100.00
13734;BME280;43298;52.560;13.508;2023-03-13T03:47:59;99848.22;;;6.94;100.00
13734;BME280;43298;52.560;13.508;2023-03-13T03:50:26;99846.31;;;6.99;100.00
13734;BME280;43298;52.560;13.508;2023-03-13T03:52:52;99837.00;;;6.97;100.00
13734;BME280;43298;52.560;13.508;2023-03-13T03:55:19;99833.47;;;6.99;100.00
13734;BME280;43298;52.560;13.508;2023-03-13T03:57:44;99834.22;;;7.01;100.00
13734;BME280;43298;52.560;13.508;2023-03-13T04:00:11;99830.69;;;7.04;100.00
13734;BME280;43298;52.560;13.508;2023-03-13T04:02:40;99818.66;;;7.04;100.00
13734;BME280;43298;52.560;13.508;2023-03-13T04:05:06;99817.50;;;7.11;100.00
13734;BME280;43298;52.560;13.508;2023-03-13T04:07:32;99812.13;;;7.17;100.00
13734;BME280;43298;52.560;13.508;2023-03-13T04:09:58;99814.69;;;7.17;100.00
13734;BME280;43298;52.560;13.508;2023-03-13T04:12:24;99797.31;;;7.22;100.00
13734;BME280;43298;52.560;13.508;2023-03-13T04:14:50;99801.59;;;7.23;100.00
13734;BME280;43298;52.560;13.508;2023-03-13T04:17:16;99795.47;;;7.26;100.00
13734;BME280;43298;52.560;13.508;2023-03-13T04:19:42;99790.13;;;7.30;100.00
13734;BME280;43298;52.560;13.508;2023-03-13T04:22:07;99784.88;;;7.32;100.00
13734;BME280;43298;52.560;13.508;2023-03-13T04:24:33;99783.94;;;7.34;100.00
13734;BME280;43298;52.560;13.508;2023-03-13T04:26:59;99776.38;;;7.31;100.00
13734;BME280;43298;52.560;13.508;2023-03-13T04:29:27;99773.66;;;7.34;100.00
13734;BME280;43298;52.560;13.508;2023-03-13T04:31:52;99780.47;;;7.35;100.00
13734;BME280;43298;52.560;13.508;2023-03-13T04:34:18;99766.84;;;7.33;100.00
13734;BME280;43298;52.560;13.508;2023-03-13T04:36:44;99767.69;;;7.34;100.00
13734;BME280;43298;52.560;13.508;2023-03-13T04:39:10;99752.38;;;7.31;100.00
13734;BME280;43298;52.560;13.508;2023-03-13T04:41:36;99757.44;;;7.32;100.00
13734;BME280;43298;52.560;13.508;2023-03-13T04:44:01;99738.34;;;7.38;100.00
13734;BME280;43298;52.560;13.508;2023-03-13T04:46:27;99742.81;;;7.34;100.00
13734;BME280;43298;52.560;13.508;2023-03-13T04:48:53;99747.16;;;7.32;100.00
13734;BME280;43298;52.560;13.508;2023-03-13T04:51:19;99733.41;;;7.33;100.00
13734;BME280;43298;52.560;13.508;2023-03-13T04:53:44;99726.66;;;7.31;100.00
13734;BME280;43298;52.560;13.508;2023-03-13T04:56:12;99721.38;;;7.34;100.00
13734;BME280;43298;52.560;13.508;2023-03-13T04:58:44;99717.78;;;7.38;100.00
13734;BME280;43298;52.560;13.508;2023-03-13T05:01:10;99710.91;;;7.38;100.00
13734;BME280;43298;52.560;13.508;2023-03-13T05:03:35;99708.59;;;7.32;100.00
13734;BME280;43298;52.560;13.508;2023-03-13T05:06:01;99703.31;;;7.35;100.00
13734;BME280;43298;52.560;13.508;2023-03-13T05:08:27;99700.81;;;7.34;100.00
13734;BME280;43298;52.560;13.508;2023-03-13T05:10:52;99695.69;;;7.34;100.00
13734;BME280;43298;52.560;13.508;2023-03-13T05:13:18;99688.75;;;7.36;100.00
13734;BME280;43298;52.560;13.508;2023-03-13T05:15:44;99676.91;;;7.32;100.00
13734;BME280;43298;52.560;13.508;2023-03-13T05:18:10;99669.13;;;7.33;100.00
13734;BME280;43298;52.560;13.508;2023-03-13T05:20:35;99665.44;;;7.39;100.00
13734;BME280;43298;52.560;13.508;2023-03-13T05:23:01;99658.44;;;7.42;100.00
13734;BME280;43298;52.560;13.508;2023-03-13T05:25:27;99659.34;;;7.41;100.00
13734;BME280;43298;52.560;13.508;2023-03-13T05:27:53;99647.28;;;7.42;100.00
13734;BME280;43298;52.560;13.508;2023-03-13T05:30:19;99655.06;;;7.40;100.00
13734;BME280;43298;52.560;13.508;2023-03-13T05:32:44;99648.28;;;7.39;100.00
13734;BME280;43298;52.560;13.508;2023-03-13T05:35:10;99642.28;;;7.39;100.00
13734;BME280;43298;52.560;13.508;2023-03-13T05:37:36;99647.09;;;7.46;100.00
13734;BME280;43298;52.560;13.508;2023-03-13T05:40:02;99636.88;;;7.45;100.00
13734;BME280;43298;52.560;13.508;2023-03-13T05:42:29;99639.56;;;7.42;100.00
13734;BME280;43298;52.560;13.508;2023-03-13T05:44:54;99627.50;;;7.44;100.00
13734;BME280;43298;52.560;13.508;2023-03-13T05:47:20;99628.31;;;7.44;100.00
13734;BME280;43298;52.560;13.508;2023-03-13T05:49:46;99622.28;;;7.45;100.00
13734;BME280;43298;52.560;13.508;2023-03-13T05:52:12;99624.91;;;7.44;100.00
13734;BME280;43298;52.560;13.508;2023-03-13T05:54:37;99614.78;;;7.41;100.00
13734;BME280;43298;52.560;13.508;2023-03-13T05:57:03;99605.41;;;7.40;100.00
13734;BME280;43298;52.560;13.508;2023-03-13T05:59:29;99596.91;;;7.38;100.00
13734;BME280;43298;52.560;13.508;2023-03-13T06:01:55;99602.06;;;7.38;100.00
13734;BME280;43298;52.560;13.508;2023-03-13T06:04:20;99603.03;;;7.35;100.00
13734;BME280;43298;52.560;13.508;2023-03-13T06:06:46;99602.13;;;7.36;100.00
13734;BME280;43298;52.560;13.508;2023-03-13T06:09:12;99597.81;;;7.37;100.00
13734;BME280;43298;52.560;13.508;2023-03-13T06:11:38;99594.41;;;7.36;100.00
13734;BME280;43298;52.560;13.508;2023-03-13T06:14:03;99593.53;;;7.37;100.00
13734;BME280;43298;52.560;13.508;2023-03-13T06:16:29;99593.53;;;7.37;100.00
13734;BME280;43298;52.560;13.508;2023-03-13T06:18:55;99592.69;;;7.37;100.00
13734;BME280;43298;52.560;13.508;2023-03-13T06:21:22;99594.34;;;7.38;100.00
13734;BME280;43298;52.560;13.508;2023-03-13T06:23:47;99588.28;;;7.39;100.00
13734;BME280;43298;52.560;13.508;2023-03-13T06:26:13;99585.56;;;7.42;100.00
13734;BME280;43298;52.560;13.508;2023-03-13T06:28:39;99579.63;;;7.41;100.00
13734;BME280;43298;52.560;13.508;2023-03-13T06:31:06;99575.06;;;7.46;100.00
13734;BME280;43298;52.560;13.508;2023-03-13T06:33:33;99569.94;;;7.46;100.00
13734;BME280;43298;52.560;13.508;2023-03-13T06:36:03;99573.34;;;7.47;100.00
13734;BME280;43298;52.560;13.508;2023-03-13T06:38:29;99561.22;;;7.49;100.00
13734;BME280;43298;52.560;13.508;2023-03-13T06:40:55;99568.06;;;7.50;100.00
13734;BME280;43298;52.560;13.508;2023-03-13T06:43:21;99558.66;;;7.49;100.00
13734;BME280;43298;52.560;13.508;2023-03-13T06:45:47;99546.50;;;7.52;100.00
13734;BME280;43298;52.560;13.508;2023-03-13T06:48:13;99547.88;;;7.59;100.00
13734;BME280;43298;52.560;13.508;2023-03-13T06:50:40;99534.88;;;7.62;100.00
13734;BME280;43298;52.560;13.508;2023-03-13T06:53:06;99526.97;;;7.65;100.00
13734;BME280;43298;52.560;13.508;2023-03-13T06:55:32;99525.94;;;7.69;100.00
13734;BME280;43298;52.560;13.508;2023-03-13T06:57:58;99519.56;;;7.76;100.00
13734;BME280;43298;52.560;13.508;2023-03-13T07:00:24;99510.19;;;7.75;100.00
13734;BME280;43298;52.560;13.508;2023-03-13T07:02:50;99510.03;;;7.78;100.00
13734;BME280;43298;52.560;13.508;2023-03-13T07:05:16;99506.53;;;7.79;100.00
13734;BME280;43298;52.560;13.508;2023-03-13T07:07:42;99503.16;;;7.79;100.00
13734;BME280;43298;52.560;13.508;2023-03-13T07:10:09;99497.59;;;7.86;100.00
13734;BME280;43298;52.560;13.508;2023-03-13T07:12:36;99497.59;;;7.86;100.00
13734;BME280;43298;52.560;13.508;2023-03-13T07:15:04;99500.19;;;7.86;100.00
13734;BME280;43298;52.560;13.508;2023-03-13T07:17:30;99499.38;;;7.86;100.00
13734;BME280;43298;52.560;13.508;2023-03-13T07:19:56;99494.16;;;7.87;100.00
13734;BME280;43298;52.560;13.508;2023-03-13T07:22:22;99510.03;;;7.95;100.00
13734;BME280;43298;52.560;13.508;2023-03-13T07:24:47;99506.53;;;7.96;100.00
13734;BME280;43298;52.560;13.508;2023-03-13T07:27:13;99500.53;;;7.96;100.00
13734;BME280;43298;52.560;13.508;2023-03-13T07:29:41;99495.25;;;7.99;100.00
13734;BME280;43298;52.560;13.508;2023-03-13T07:32:07;99500.31;;;8.00;100.00
13734;BME280;43298;52.560;13.508;2023-03-13T07:34:33;99506.38;;;7.99;100.00
13734;BME280;43298;52.560;13.508;2023-03-13T07:36:59;99494.56;;;7.95;100.00
13734;BME280;43298;52.560;13.508;2023-03-13T07:39:25;99487.53;;;7.99;100.00
13734;BME280;43298;52.560;13.508;2023-03-13T07:41:50;99491.69;;;8.01;100.00
13734;BME280;43298;52.560;13.508;2023-03-13T07:44:16;99488.94;;;8.04;100.00
13734;BME280;43298;52.560;13.508;2023-03-13T07:46:42;99479.34;;;8.08;100.00
13734;BME280;43298;52.560;13.508;2023-03-13T07:49:08;99479.91;;;8.13;100.00
13734;BME280;43298;52.560;13.508;2023-03-13T07:51:34;99478.13;;;8.15;100.00
13734;BME280;43298;52.560;13.508;2023-03-13T07:54:00;99468.41;;;8.20;100.00
13734;BME280;43298;52.560;13.508;2023-03-13T07:56:25;99463.25;;;8.20;100.00
13734;BME280;43298;52.560;13.508;2023-03-13T07:58:51;99457.66;;;8.29;100.00
13734;BME280;43298;52.560;13.508;2023-03-13T08:01:21;99453.16;;;8.32;100.00
13734;BME280;43298;52.560;13.508;2023-03-13T08:03:48;99449.50;;;8.36;100.00
13734;BME280;43298;52.560;13.508;2023-03-13T08:06:21;99452.09;;;8.36;100.00
13734;BME280;43298;52.560;13.508;2023-03-13T08:08:51;99455.50;;;8.37;100.00
13734;BME280;43298;52.560;13.508;2023-03-13T08:11:21;99443.28;;;8.40;100.00
13734;BME280;43298;52.560;13.508;2023-03-13T08:13:49;99447.31;;;8.46;100.00
13734;BME280;43298;52.560;13.508;2023-03-13T08:16:21;99434.41;;;8.46;100.00
13734;BME280;43298;52.560;13.508;2023-03-13T08:18:52;99444.97;;;8.41;100.00
13734;BME280;43298;52.560;13.508;2023-03-13T08:21:24;99447.53;;;8.41;100.00
13734;BME280;43298;52.560;13.508;2023-03-13T08:23:57;99421.69;;;8.43;100.00
13734;BME280;43298;52.560;13.508;2023-03-13T08:26:27;99430.75;;;8.50;100.00
13734;BME280;43298;52.560;13.508;2023-03-13T08:29:00;99423.75;;;8.52;100.00
13734;BME280;43298;52.560;13.508;2023-03-13T08:31:37;99427.91;;;8.54;100.00
13734;BME280;43298;52.560;13.508;2023-03-13T08:34:03;99420.63;;;8.62;100.00
13734;BME280;43298;52.560;13.508;2023-03-13T08:36:35;99410.31;;;8.62;100.00
13734;BME280;43298;52.560;13.508;2023-03-13T08:39:05;99415.09;;;8.68;100.00
13734;BME280;43298;52.560;13.508;2023-03-13T08:41:35;99412.53;;;8.68;100.00
13734;BME280;43298;52.560;13.508;2023-03-13T08:44:03;99408.13;;;8.70;100.00
13734;BME280;43298;52.560;13.508;2023-03-13T08:46:31;99398.66;;;8.71;100.00
13734;BME280;43298;52.560;13.508;2023-03-13T08:48:57;99398.47;;;8.74;100.00
13734;BME280;43298;52.560;13.508;2023-03-13T08:51:26;99400.97;;;8.75;100.00
13734;BME280;43298;52.560;13.508;2023-03-13T08:53:53;99407.53;;;8.81;100.00
13734;BME280;43298;52.560;13.508;2023-03-13T08:56:22;99396.25;;;8.83;100.00
13734;BME280;43298;52.560;13.508;2023-03-13T08:59:00;99378.09;;;8.85;100.00
13734;BME280;43298;52.560;13.508;2023-03-13T09:01:30;99385.72;;;8.86;100.00
13734;BME280;43298;52.560;13.508;2023-03-13T09:03:57;99383.91;;;8.88;100.00
13734;BME280;43298;52.560;13.508;2023-03-13T09:06:23;99387.25;;;8.90;100.00
13734;BME280;43298;52.560;13.508;2023-03-13T09:08:49;99377.66;;;8.92;100.00
13734;BME280;43298;52.560;13.508;2023-03-13T09:11:18;99375.75;;;8.96;100.00
13734;BME280;43298;52.560;13.508;2023-03-13T09:13:47;99366.16;;;8.98;100.00
13734;BME280;43298;52.560;13.508;2023-03-13T09:16:22;99366.00;;;9.01;100.00
13734;BME280;43298;52.560;13.508;2023-03-13T09:18:49;99358.00;;;9.05;100.00
13734;BME280;43298;52.560;13.508;2023-03-13T09:21:19;99349.19;;;9.09;100.00
13734;BME280;43298;52.560;13.508;2023-03-13T09:23:45;99354.97;;;9.13;100.00
13734;BME280;43298;52.560;13.508;2023-03-13T09:26:12;99352.06;;;9.19;100.00
13734;BME280;43298;52.560;13.508;2023-03-13T09:28:39;99362.09;;;9.23;100.00
13734;BME280;43298;52.560;13.508;2023-03-13T09:31:30;99362.75;;;9.27;100.00
13734;BME280;43298;52.560;13.508;2023-03-13T09:33:57;99358.25;;;9.31;100.00
13734;BME280;43298;52.560;13.508;2023-03-13T09:36:23;99351.31;;;9.31;100.00
13734;BME280;43298;52.560;13.508;2023-03-13T09:38:55;99359.81;;;9.33;100.00
13734;BME280;43298;52.560;13.508;2023-03-13T09:44:30;99352.25;;;9.30;100.00
13734;BME280;43298;52.560;13.508;2023-03-13T09:50:02;99354.56;;;9.35;100.00
13734;BME280;43298;52.560;13.508;2023-03-13T09:52:34;99353.47;;;9.39;100.00
13734;BME280;43298;52.560;13.508;2023-03-13T09:55:18;99342.63;;;9.48;100.00
13734;BME280;43298;52.560;13.508;2023-03-13T10:00:37;99342.41;;;9.51;100.00
13734;BME280;43298;52.560;13.508;2023-03-13T10:05:42;99337.06;;;9.54;100.00
13734;BME280;43298;52.560;13.508;2023-03-13T10:08:19;99335.16;;;9.57;100.00
13734;BME280;43298;52.560;13.508;2023-03-13T10:11:02;99336.34;;;9.66;100.00
13734;BME280;43298;52.560;13.508;2023-03-13T10:13:50;99330.09;;;9.70;100.00
13734;BME280;43298;52.560;13.508;2023-03-13T10:19:17;99328.50;;;9.81;100.00
13734;BME280;43298;52.560;13.508;2023-03-13T10:21:48;99338.81;;;9.81;100.00
13734;BME280;43298;52.560;13.508;2023-03-13T10:27:15;99342.50;;;9.91;100.00
13734;BME280;43298;52.560;13.508;2023-03-13T10:29:41;99339.28;;;10.02;100.00
13734;BME280;43298;52.560;13.508;2023-03-13T10:32:12;99324.78;;;10.13;100.00
13734;BME280;43298;52.560;13.508;2023-03-13T10:34:59;99309.66;;;10.21;100.00
13734;BME280;43298;52.560;13.508;2023-03-13T10:37:28;99323.66;;;10.31;100.00
13734;BME280;43298;52.560;13.508;2023-03-13T10:40:00;99307.56;;;10.40;100.00
13734;BME280;43298;52.560;13.508;2023-03-13T10:42:41;99301.56;;;10.40;100.00
13734;BME280;43298;52.560;13.508;2023-03-13T10:45:20;99314.84;;;10.48;100.00
13734;BME280;43298;52.560;13.508;2023-03-13T10:48:00;99307.03;;;10.62;100.00
13734;BME280;43298;52.560;13.508;2023-03-13T10:50:33;99294.97;;;10.87;100.00
13734;BME280;43298;52.560;13.508;2023-03-13T10:55:59;99306.09;;;11.27;100.00
13734;BME280;43298;52.560;13.508;2023-03-13T10:58:49;99298.63;;;11.35;100.00
13734;BME280;43298;52.560;13.508;2023-03-13T11:01:41;99282.06;;;11.50;100.00
13734;BME280;43298;52.560;13.508;2023-03-13T11:07:05;99248.63;;;11.72;100.00
13734;BME280;43298;52.560;13.508;2023-03-13T11:09:36;99240.19;;;11.81;100.00
13734;BME280;43298;52.560;13.508;2023-03-13T11:12:19;99220.88;;;11.97;100.00
13734;BME280;43298;52.560;13.508;2023-03-13T11:14:45;99217.13;;;12.25;100.00
13734;BME280;43298;52.560;13.508;2023-03-13T11:17:39;99209.25;;;12.61;100.00
13734;BME280;43298;52.560;13.508;2023-03-13T11:20:25;99182.44;;;12.95;100.00
13734;BME280;43298;52.560;13.508;2023-03-13T11:23:08;99183.81;;;12.77;100.00
13734;BME280;43298;52.560;13.508;2023-03-13T11:29:50;99161.88;;;12.81;100.00
13734;BME280;43298;52.560;13.508;2023-03-13T11:31:46;99138.41;;;12.72;100.00
13734;BME280;43298;52.560;13.508;2023-03-13T11:43:03;99134.53;;;12.77;100.00
13734;BME280;43298;52.560;13.508;2023-03-13T11:52:04;99125.03;;;13.00;100.00
13734;BME280;43298;52.560;13.508;2023-03-13T12:00:49;99115.09;;;13.05;100.00
13734;BME280;43298;52.560;13.508;2023-03-13T12:04:10;99115.81;;;13.07;100.00
13734;BME280;43298;52.560;13.508;2023-03-13T12:09:53;99106.97;;;13.20;100.00
13734;BME280;43298;52.560;13.508;2023-03-13T12:12:52;99114.81;;;13.41;100.00
13734;BME280;43298;52.560;13.508;2023-03-13T12:15:28;99115.03;;;13.60;100.00
13734;BME280;43298;52.560;13.508;2023-03-13T12:18:30;99117.00;;;13.67;100.00
13734;BME280;43298;52.560;13.508;2023-03-13T12:26:18;99104.66;;;13.91;100.00
13734;BME280;43298;52.560;13.508;2023-03-13T12:31:52;99098.63;;;13.91;100.00
13734;BME280;43298;52.560;13.508;2023-03-13T12:34:35;99097.72;;;13.81;100.00
13734;BME280;43298;52.560;13.508;2023-03-13T12:37:24;99093.69;;;13.88;100.00
13734;BME280;43298;52.560;13.508;2023-03-13T12:43:37;99095.00;;;14.34;100.00
13734;BME280;43298;52.560;13.508;2023-03-13T12:46:41;99078.31;;;14.57;100.00
13734;BME280;43298;52.560;13.508;2023-03-13T12:49:50;99084.53;;;14.45;100.00
13734;BME280;43298;52.560;13.508;2023-03-13T12:58:09;99082.94;;;16.01;100.00
13734;BME280;43298;52.560;13.508;2023-03-13T13:00:41;99081.69;;;15.86;100.00
13734;BME280;43298;52.560;13.508;2023-03-13T13:06:09;99105.00;;;15.69;100.00
13734;BME280;43298;52.560;13.508;2023-03-13T13:11:34;99095.81;;;15.93;100.00
13734;BME280;43298;52.560;13.508;2023-03-13T13:16:51;99107.22;;;15.64;100.00
13734;BME280;43298;52.560;13.508;2023-03-13T13:32:54;99101.59;;;16.44;100.00
13734;BME280;43298;52.560;13.508;2023-03-13T13:35:33;99095.78;;;16.60;100.00
13734;BME280;43298;52.560;13.508;2023-03-13T13:43:41;99103.44;;;16.61;100.00
13734;BME280;43298;52.560;13.508;2023-03-13T13:46:25;99102.66;;;16.42;100.00
13734;BME280;43298;52.560;13.508;2023-03-13T13:49:15;99110.38;;;16.53;100.00
13734;BME280;43298;52.560;13.508;2023-03-13T13:54:56;99092.66;;;16.47;100.00
13734;BME280;43298;52.560;13.508;2023-03-13T13:57:31;99105.41;;;16.31;100.00
13734;BME280;43298;52.560;13.508;2023-03-13T14:00:42;99112.84;;;16.26;100.00
13734;BME280;43298;52.560;13.508;2023-03-13T14:03:41;99107.34;;;16.29;100.00
13734;BME280;43298;52.560;13.508;2023-03-13T14:06:27;99103.88;;;16.38;100.00
13734;BME280;43298;52.560;13.508;2023-03-13T14:11:53;99098.13;;;16.44;100.00
13734;BME280;43298;52.560;13.508;2023-03-13T14:14:20;99098.53;;;16.30;100.00
13734;BME280;43298;52.560;13.508;2023-03-13T14:16:52;99099.59;;;16.75;100.00
13734;BME280;43298;52.560;13.508;2023-03-13T14:22:06;99097.78;;;16.75;100.00
13734;BME280;43298;52.560;13.508;2023-03-13T14:24:33;99097.19;;;16.91;100.00
13734;BME280;43298;52.560;13.508;2023-03-13T14:26:59;99100.06;;;16.97;100.00
13734;BME280;43298;52.560;13.508;2023-03-13T14:29:25;99100.00;;;17.07;100.00
13734;BME280;43298;52.560;13.508;2023-03-13T14:31:55;99105.81;;;17.28;100.00
13734;BME280;43298;52.560;13.508;2023-03-13T14:34:21;99096.66;;;16.87;100.00
13734;BME280;43298;52.560;13.508;2023-03-13T14:42:10;99099.78;;;16.26;100.00
13734;BME280;43298;52.560;13.508;2023-03-13T14:44:37;99097.59;;;16.21;100.00
13734;BME280;43298;52.560;13.508;2023-03-13T14:47:28;99095.25;;;16.18;100.00
13734;BME280;43298;52.560;13.508;2023-03-13T14:50:02;99094.44;;;16.18;100.00
13734;BME280;43298;52.560;13.508;2023-03-13T14:52:30;99079.22;;;16.13;100.00
13734;BME280;43298;52.560;13.508;2023-03-13T14:55:11;99079.81;;;16.72;100.00
13734;BME280;43298;52.560;13.508;2023-03-13T14:58:26;99073.94;;;16.88;100.00
13734;BME280;43298;52.560;13.508;2023-03-13T15:00:53;99071.56;;;17.04;100.00
13734;BME280;43298;52.560;13.508;2023-03-13T15:03:29;99081.31;;;17.29;100.00